Time;durP1;ratioP1;P1;durP2;ratioP2;P2;SDS_P1;SDS_P2;PMS_P1;PMS_P2;Temp;Humidity;BMP_temperature;BMP_pressure;BME280_temperature;BME280_humidity;BME280_pressure;Samples;Min_cycle;Max_cycle;Signal;HPM_P1;HPM_P2
2021/08/25 00:01:31;;;;;;;6.82;4.53;;;16.70;70.20;;;;;;5046287;28;20132;-53
2021/08/25 00:04:16;;;;;;;5.68;4.18;;;16.70;70.10;;;;;;5046369;28;20052;-50
2021/08/25 00:07:00;;;;;;;5.65;4.18;;;16.70;70.00;;;;;;5046441;28;20029;-50
2021/08/25 00:09:44;;;;;;;6.60;4.15;;;16.60;70.20;;;;;;5046224;28;20028;-52
2021/08/25 00:12:30;;;;;;;5.65;4.40;;;16.70;70.20;;;;;;5046134;28;20208;-50
2021/08/25 00:15:14;;;;;;;9.85;4.82;;;16.70;70.20;;;;;;5045885;28;20040;-49
2021/08/25 00:17:59;;;;;;;7.28;4.20;;;16.70;70.20;;;;;;5045503;28;20063;-48
2021/08/25 00:20:43;;;;;;;7.97;4.43;;;16.60;70.40;;;;;;5046140;28;20040;-50
2021/08/25 00:23:27;;;;;;;7.03;5.47;;;16.60;70.40;;;;;;5046165;28;20032;-51
2021/08/25 00:26:11;;;;;;;6.22;4.70;;;16.60;70.10;;;;;;5046175;28;20038;-50
2021/08/25 00:28:55;;;;;;;6.47;4.60;;;16.60;70.20;;;;;;5045760;28;20040;-52
2021/08/25 00:31:40;;;;;;;7.88;5.10;;;16.70;70.30;;;;;;5045369;28;20096;-50
2021/08/25 00:34:24;;;;;;;7.22;5.00;;;16.70;70.30;;;;;;5045689;28;20274;-49
2021/08/25 00:37:09;;;;;;;6.80;4.72;;;16.70;70.30;;;;;;5045653;28;20029;-50
2021/08/25 00:39:53;;;;;;;7.80;5.28;;;16.70;70.40;;;;;;5045828;28;20245;-51
2021/08/25 00:42:37;;;;;;;10.63;5.18;;;16.80;70.40;;;;;;5045568;28;20028;-52
2021/08/25 00:45:21;;;;;;;8.00;5.22;;;16.70;70.40;;;;;;5045560;28;20124;-49
2021/08/25 00:48:06;;;;;;;8.13;5.82;;;16.70;70.40;;;;;;5045886;28;20032;-51
2021/08/25 00:50:50;;;;;;;7.55;5.30;;;16.70;70.40;;;;;;5045643;28;20132;-51
2021/08/25 00:53:34;;;;;;;10.18;5.35;;;16.70;70.50;;;;;;5045852;28;20037;-51
2021/08/25 00:56:20;;;;;;;10.07;5.38;;;16.70;70.40;;;;;;5044833;28;20343;-49
2021/08/25 00:59:05;;;;;;;8.43;5.03;;;16.80;70.40;;;;;;5044329;28;20037;-52
2021/08/25 01:02:11;;;;;;;7.22;5.38;;;16.80;70.70;;;;;;5044249;28;20033;-49
2021/08/25 01:04:59;;;;;;;7.65;5.03;;;16.80;70.80;;;;;;5045069;28;20056;-52
2021/08/25 01:07:43;;;;;;;7.88;5.20;;;16.80;70.50;;;;;;5044993;28;20044;-50
2021/08/25 01:10:31;;;;;;;7.13;5.20;;;16.80;70.40;;;;;;5044121;28;20269;-49
2021/08/25 01:13:15;;;;;;;14.55;5.75;;;16.80;70.30;;;;;;5044955;28;20213;-49
2021/08/25 01:16:00;;;;;;;7.90;5.32;;;16.80;70.50;;;;;;5044854;28;20060;-49
2021/08/25 01:18:45;;;;;;;7.20;5.38;;;16.80;70.40;;;;;;5044713;28;20059;-51
2021/08/25 01:21:29;;;;;;;8.68;5.68;;;16.90;70.40;;;;;;5044020;28;20060;-51
2021/08/25 01:24:13;;;;;;;7.35;6.07;;;16.90;70.90;;;;;;5044664;28;20060;-47
2021/08/25 01:26:57;;;;;;;11.18;5.93;;;17.00;71.10;;;;;;5045157;28;20032;-50
2021/08/25 01:29:42;;;;;;;7.80;6.18;;;17.00;71.40;;;;;;5043915;28;20347;-50
2021/08/25 01:32:27;;;;;;;8.43;6.35;;;17.10;71.50;;;;;;5045121;28;20390;-48
2021/08/25 01:35:11;;;;;;;7.13;5.20;;;17.00;71.60;;;;;;5044600;28;20033;-51
2021/08/25 01:37:55;;;;;;;7.93;5.35;;;17.10;71.90;;;;;;5044510;28;20032;-51
2021/08/25 01:40:40;;;;;;;8.88;6.07;;;17.10;72.10;;;;;;5044448;28;20254;-51
2021/08/25 01:43:24;;;;;;;9.07;6.25;;;17.10;72.10;;;;;;5043716;28;20387;-49
2021/08/25 01:46:16;;;;;;;9.30;6.88;;;17.00;72.10;;;;;;5044425;28;20051;-50
2021/08/25 01:49:03;;;;;;;7.80;6.07;;;17.00;72.20;;;;;;5044299;28;20101;-50
2021/08/25 01:51:48;;;;;;;9.38;6.50;;;16.90;72.20;;;;;;5044324;28;20390;-51
2021/08/25 01:54:32;;;;;;;9.15;6.45;;;17.00;72.00;;;;;;5044453;28;20032;-50
2021/08/25 01:57:16;;;;;;;8.80;6.85;;;16.90;72.10;;;;;;5044104;28;20024;-51
2021/08/25 02:00:00;;;;;;;12.07;6.53;;;16.90;72.30;;;;;;5044501;28;20308;-50
2021/08/25 02:02:45;;;;;;;11.02;7.03;;;16.90;72.30;;;;;;5044265;28;20035;-50
2021/08/25 02:05:29;;;;;;;8.50;6.40;;;16.80;71.90;;;;;;5045139;28;20064;-51
2021/08/25 02:08:13;;;;;;;8.07;6.53;;;16.80;71.80;;;;;;5044447;28;20097;-52
2021/08/25 02:10:58;;;;;;;8.60;6.30;;;16.70;72.00;;;;;;5044273;28;20035;-52
2021/08/25 02:13:42;;;;;;;7.40;5.90;;;16.70;71.90;;;;;;5044167;28;20099;-49
2021/08/25 02:16:27;;;;;;;9.68;7.13;;;16.60;72.10;;;;;;5043900;28;20261;-53
2021/08/25 02:19:11;;;;;;;10.30;6.95;;;16.60;71.90;;;;;;5043966;28;20055;-50
2021/08/25 02:21:55;;;;;;;8.32;6.35;;;16.60;71.90;;;;;;5043874;28;20063;-49
2021/08/25 02:24:39;;;;;;;8.55;6.38;;;16.50;72.00;;;;;;5043787;28;20036;-52
2021/08/25 02:27:24;;;;;;;11.60;7.32;;;16.50;71.80;;;;;;5043749;28;20355;-49
2021/08/25 02:30:09;;;;;;;10.88;7.20;;;16.50;71.70;;;;;;5044201;28;20024;-49
2021/08/25 02:32:53;;;;;;;8.93;6.65;;;16.50;71.50;;;;;;5043763;28;20055;-51
2021/08/25 02:35:37;;;;;;;10.52;6.20;;;16.50;71.60;;;;;;5043680;28;20040;-50
2021/08/25 02:38:22;;;;;;;8.15;6.50;;;16.60;71.40;;;;;;5043585;28;20060;-50
2021/08/25 02:41:07;;;;;;;9.45;6.40;;;16.50;71.50;;;;;;5043959;28;20087;-50
2021/08/25 02:43:51;;;;;;;7.60;5.90;;;16.50;71.40;;;;;;5043578;28;20072;-50
2021/08/25 02:46:35;;;;;;;8.55;6.50;;;16.60;71.40;;;;;;5043578;28;20032;-49
2021/08/25 02:49:20;;;;;;;8.48;6.15;;;16.50;71.30;;;;;;5043535;28;20063;-50
2021/08/25 02:52:04;;;;;;;8.88;6.15;;;16.50;71.20;;;;;;5043430;28;20024;-52
2021/08/25 02:54:49;;;;;;;9.07;6.32;;;16.40;71.30;;;;;;5044997;28;20032;-52
2021/08/25 02:57:33;;;;;;;9.02;6.03;;;16.50;71.10;;;;;;5047425;28;20063;-51
2021/08/25 03:00:17;;;;;;;8.13;6.03;;;16.50;71.00;;;;;;5047330;28;20040;-50
2021/08/25 03:03:01;;;;;;;8.20;6.10;;;16.40;71.00;;;;;;5047857;28;20082;-52
2021/08/25 03:05:46;;;;;;;10.30;6.13;;;16.40;70.80;;;;;;5047571;28;20104;-52
2021/08/25 03:08:30;;;;;;;7.70;5.93;;;16.50;70.90;;;;;;5047418;28;20080;-49
2021/08/25 03:11:14;;;;;;;7.70;5.85;;;16.50;70.80;;;;;;5047232;28;20033;-51
2021/08/25 03:13:58;;;;;;;10.23;5.78;;;16.40;70.70;;;;;;5047039;28;20095;-52
2021/08/25 03:16:43;;;;;;;7.47;5.75;;;16.40;70.80;;;;;;5047074;28;20115;-49
2021/08/25 03:19:27;;;;;;;10.02;5.70;;;16.40;70.80;;;;;;5047408;28;20036;-51
2021/08/25 03:22:11;;;;;;;9.18;6.07;;;16.50;70.60;;;;;;5047196;28;20072;-49
2021/08/25 03:24:56;;;;;;;9.40;6.20;;;16.40;70.50;;;;;;5047106;28;20217;-48
2021/08/25 03:27:40;;;;;;;7.00;5.55;;;16.40;70.30;;;;;;5047095;28;20364;-50
2021/08/25 03:30:24;;;;;;;9.45;5.55;;;16.30;70.40;;;;;;5047182;28;20041;-52
2021/08/25 03:33:09;;;;;;;7.85;5.70;;;16.30;70.30;;;;;;5047389;28;20059;-52
2021/08/25 03:35:52;;;;;;;10.18;6.20;;;16.30;70.30;;;;;;5046986;28;20040;-51
2021/08/25 03:38:37;;;;;;;7.15;5.60;;;16.30;70.20;;;;;;5046785;28;20351;-52
2021/08/25 03:41:21;;;;;;;7.68;5.82;;;16.30;70.10;;;;;;5046269;28;20091;-51
2021/08/25 03:44:05;;;;;;;7.75;5.60;;;16.30;70.20;;;;;;5045795;28;20144;-49
2021/08/25 03:46:49;;;;;;;9.13;6.07;;;16.30;70.20;;;;;;5046626;28;20048;-51
2021/08/25 03:49:33;;;;;;;8.35;5.97;;;16.30;70.30;;;;;;5046751;28;20359;-50
2021/08/25 03:52:18;;;;;;;8.57;6.30;;;16.20;70.40;;;;;;5046549;28;20252;-49
2021/08/25 03:55:02;;;;;;;10.27;6.20;;;16.20;70.50;;;;;;5046538;28;20060;-53
2021/08/25 03:57:47;;;;;;;9.63;5.65;;;16.10;70.70;;;;;;5046359;28;20044;-48
2021/08/25 04:00:31;;;;;;;7.45;5.72;;;16.10;70.50;;;;;;5046289;28;20037;-51
2021/08/25 04:03:15;;;;;;;9.55;6.45;;;16.10;70.50;;;;;;5046186;28;20079;-51
2021/08/25 04:05:59;;;;;;;10.45;6.80;;;16.00;70.60;;;;;;5045672;28;20221;-49
2021/08/25 04:08:44;;;;;;;8.18;5.80;;;16.10;70.60;;;;;;5046416;28;20040;-53
2021/08/25 04:11:28;;;;;;;7.45;5.82;;;16.10;70.50;;;;;;5046682;28;20036;-50
2021/08/25 04:14:12;;;;;;;12.65;6.78;;;15.90;70.80;;;;;;5046267;28;20049;-50
2021/08/25 04:16:56;;;;;;;13.13;6.35;;;16.00;70.40;;;;;;5046378;28;20044;-49
2021/08/25 04:19:41;;;;;;;9.00;6.50;;;16.00;70.40;;;;;;5046279;28;20044;-49
2021/08/25 04:22:25;;;;;;;8.73;6.13;;;15.90;70.60;;;;;;5046157;28;20397;-49
2021/08/25 04:25:10;;;;;;;8.10;6.03;;;15.90;70.50;;;;;;5046188;28;20029;-51
2021/08/25 04:27:54;;;;;;;8.55;6.35;;;16.00;70.50;;;;;;5045944;28;20036;-49
2021/08/25 04:30:38;;;;;;;8.75;6.47;;;15.90;70.60;;;;;;5045831;28;20086;-51
2021/08/25 04:33:22;;;;;;;10.88;6.55;;;15.80;70.70;;;;;;5045713;28;20118;-50
2021/08/25 04:36:07;;;;;;;11.75;6.13;;;15.80;70.80;;;;;;5046204;28;20064;-50
2021/08/25 04:38:51;;;;;;;10.98;6.90;;;15.80;70.70;;;;;;5045714;28;20348;-51
2021/08/25 04:41:35;;;;;;;15.43;7.00;;;15.80;70.70;;;;;;5046114;28;20049;-51
2021/08/25 04:44:19;;;;;;;8.45;6.05;;;15.80;70.80;;;;;;5046030;28;20112;-49
2021/08/25 04:47:03;;;;;;;13.00;6.68;;;15.80;70.90;;;;;;5045765;28;20029;-52
2021/08/25 04:49:47;;;;;;;11.38;6.65;;;15.80;70.70;;;;;;5045428;28;20032;-49
2021/08/25 04:52:32;;;;;;;12.55;6.57;;;15.80;70.80;;;;;;5045361;28;20036;-49
2021/08/25 04:55:16;;;;;;;10.18;7.07;;;15.80;70.80;;;;;;5044272;28;20028;-51
2021/08/25 04:58:00;;;;;;;8.93;6.50;;;15.80;71.00;;;;;;5045110;28;20064;-49
2021/08/25 05:00:46;;;;;;;11.40;6.93;;;15.80;71.10;;;;;;5045238;28;20060;-49
2021/08/25 05:03:31;;;;;;;9.32;6.80;;;15.80;71.00;;;;;;5045065;28;20087;-51
2021/08/25 05:06:15;;;;;;;8.57;6.70;;;15.80;71.00;;;;;;5044890;28;20020;-50
2021/08/25 05:08:59;;;;;;;14.73;7.30;;;15.70;71.10;;;;;;5045399;28;20028;-49
2021/08/25 05:11:43;;;;;;;12.27;7.07;;;15.60;71.20;;;;;;5045155;28;20217;-49
2021/08/25 05:14:28;;;;;;;11.02;6.72;;;15.60;71.20;;;;;;5044958;28;20107;-51
2021/08/25 05:17:12;;;;;;;9.52;6.60;;;15.60;71.10;;;;;;5045037;28;20052;-49
2021/08/25 05:20:00;;;;;;;10.02;6.65;;;15.60;71.20;;;;;;5044510;28;20043;-50
2021/08/25 05:22:45;;;;;;;9.20;6.35;;;15.70;71.40;;;;;;5044680;28;20036;-49
2021/08/25 05:25:30;;;;;;;10.73;6.50;;;15.60;71.40;;;;;;5045273;28;20377;-49
2021/08/25 05:28:14;;;;;;;11.43;7.15;;;15.60;71.50;;;;;;5044680;28;20031;-51
2021/08/25 05:30:58;;;;;;;9.43;6.18;;;15.50;71.40;;;;;;5044702;28;20209;-52
2021/08/25 05:33:43;;;;;;;11.60;6.60;;;15.60;71.50;;;;;;5044552;28;20088;-51
2021/08/25 05:36:27;;;;;;;11.25;7.53;;;15.50;71.80;;;;;;5044408;28;20040;-48
2021/08/25 05:39:12;;;;;;;12.85;7.38;;;15.50;71.70;;;;;;5044774;28;20432;-51
2021/08/25 05:41:56;;;;;;;10.85;6.20;;;15.50;71.70;;;;;;5044555;28;20032;-48
2021/08/25 05:44:40;;;;;;;11.32;6.90;;;15.60;71.60;;;;;;5045060;28;20052;-51
2021/08/25 05:47:24;;;;;;;12.68;6.72;;;15.60;71.90;;;;;;5044691;28;20080;-52
2021/08/25 05:50:09;;;;;;;13.07;6.97;;;15.60;71.80;;;;;;5044723;28;20244;-48
2021/08/25 05:52:53;;;;;;;10.38;6.55;;;15.70;71.70;;;;;;5044432;28;20113;-50
2021/08/25 05:55:38;;;;;;;10.15;6.10;;;15.70;71.60;;;;;;5044531;28;20033;-50
2021/08/25 05:58:22;;;;;;;10.20;6.30;;;15.60;71.60;;;;;;5044229;28;20079;-52
2021/08/25 06:01:06;;;;;;;8.75;6.03;;;15.50;71.70;;;;;;5044284;28;20028;-50
2021/08/25 06:03:51;;;;;;;9.93;6.18;;;15.50;71.60;;;;;;5044209;28;20347;-49
2021/08/25 06:06:35;;;;;;;12.57;6.28;;;15.40;71.70;;;;;;5043088;28;20028;-49
2021/08/25 06:09:20;;;;;;;8.32;5.60;;;15.50;71.60;;;;;;5043848;28;20024;-51
2021/08/25 06:12:04;;;;;;;11.23;6.25;;;15.40;71.80;;;;;;5043462;28;20024;-52
2021/08/25 06:14:48;;;;;;;7.30;5.13;;;15.50;71.80;;;;;;5042994;28;20155;-49
2021/08/25 06:17:32;;;;;;;10.68;5.93;;;15.60;71.90;;;;;;5044374;28;20047;-49
2021/08/25 06:20:17;;;;;;;13.82;5.85;;;15.60;71.80;;;;;;5044133;28;20056;-51
2021/08/25 06:23:01;;;;;;;8.63;5.95;;;15.70;71.60;;;;;;5044144;28;20096;-51
2021/08/25 06:25:45;;;;;;;7.15;5.15;;;15.60;71.80;;;;;;5044102;28;20075;-49
2021/08/25 06:28:30;;;;;;;9.02;5.38;;;15.70;71.70;;;;;;5043673;28;20040;-51
2021/08/25 06:31:14;;;;;;;8.55;5.20;;;15.70;71.50;;;;;;5043899;28;20071;-51
2021/08/25 06:33:58;;;;;;;7.28;5.22;;;15.80;71.50;;;;;;5043795;28;20036;-49
2021/08/25 06:36:42;;;;;;;7.20;4.88;;;15.90;71.30;;;;;;5043667;28;20208;-51
2021/08/25 06:39:26;;;;;;;8.77;5.15;;;16.00;71.20;;;;;;5043487;28;20228;-53
2021/08/25 06:42:11;;;;;;;11.25;5.03;;;16.00;71.20;;;;;;5043927;28;20036;-49
2021/08/25 06:44:55;;;;;;;10.07;4.82;;;16.10;71.30;;;;;;5044672;28;20036;-51
2021/08/25 06:47:39;;;;;;;7.32;4.97;;;16.00;71.00;;;;;;5042661;28;20100;-50
2021/08/25 06:50:23;;;;;;;8.00;4.72;;;16.10;71.20;;;;;;5043837;28;20089;-52
2021/08/25 06:53:08;;;;;;;12.82;5.00;;;16.20;70.90;;;;;;5043910;28;20068;-53
2021/08/25 06:55:52;;;;;;;12.18;4.95;;;16.30;71.00;;;;;;5043813;28;20032;-49
2021/08/25 06:58:36;;;;;;;9.35;4.80;;;16.30;70.70;;;;;;5043353;28;20035;-51
2021/08/25 07:01:21;;;;;;;8.85;4.45;;;16.40;70.60;;;;;;5043408;28;20036;-50
2021/08/25 07:04:05;;;;;;;9.30;4.60;;;16.60;70.60;;;;;;5043385;28;20208;-53
2021/08/25 07:06:50;;;;;;;8.68;4.60;;;16.70;70.40;;;;;;5042395;28;20104;-50
2021/08/25 07:09:34;;;;;;;11.63;5.05;;;16.80;69.70;;;;;;5043335;28;20040;-52
2021/08/25 07:12:20;;;;;;;7.53;3.80;;;16.80;69.10;;;;;;5043288;28;20032;-51
2021/08/25 07:15:05;;;;;;;9.13;4.63;;;17.10;68.90;;;;;;5043558;28;20040;-49
2021/08/25 07:17:50;;;;;;;10.15;4.30;;;17.70;67.10;;;;;;5042502;28;20060;-52
2021/08/25 07:20:34;;;;;;;7.65;3.78;;;18.80;63.70;;;;;;5043881;28;20048;-53
2021/08/25 07:23:18;;;;;;;6.18;3.60;;;20.00;60.90;;;;;;5044669;28;20064;-53
2021/08/25 07:26:03;;;;;;;6.88;3.40;;;21.30;57.40;;;;;;5044274;28;20075;-49
2021/08/25 07:28:47;;;;;;;9.00;3.47;;;21.80;57.40;;;;;;5043745;28;20151;-53
2021/08/25 07:31:31;;;;;;;5.28;3.17;;;21.90;55.70;;;;;;5043156;28;20224;-52
2021/08/25 07:34:15;;;;;;;6.82;2.92;;;22.30;54.30;;;;;;5043103;28;20408;-52
2021/08/25 07:37:01;;;;;;;8.25;3.20;;;23.30;51.20;;;;;;5042997;28;20260;-54
2021/08/25 07:39:45;;;;;;;6.80;2.70;;;24.90;47.50;;;;;;5042883;28;20036;-52
2021/08/25 07:42:29;;;;;;;5.03;2.95;;;26.10;45.30;;;;;;5046761;28;20105;-53
2021/08/25 07:45:13;;;;;;;5.45;3.10;;;26.70;43.40;;;;;;5046708;28;20082;-48
2021/08/25 07:47:57;;;;;;;7.47;2.70;;;26.60;41.90;;;;;;5047121;28;20033;-53
2021/08/25 07:50:41;;;;;;;4.32;2.92;;;25.80;44.20;;;;;;5046665;28;20076;-54
2021/08/25 07:53:26;;;;;;;5.63;2.70;;;24.80;45.90;;;;;;5046874;28;20209;-52
2021/08/25 07:56:10;;;;;;;4.05;2.80;;;23.70;47.60;;;;;;5046739;28;20109;-51
2021/08/25 07:58:55;;;;;;;6.13;2.97;;;23.20;49.70;;;;;;5046670;28;20035;-50
2021/08/25 08:01:39;;;;;;;7.15;3.03;;;22.60;50.30;;;;;;5046649;28;20090;-52
2021/08/25 08:04:24;;;;;;;4.50;2.90;;;22.10;49.60;;;;;;5046349;28;20037;-53
2021/08/25 08:07:07;;;;;;;5.18;2.55;;;21.70;50.30;;;;;;5046208;28;20029;-51
2021/08/25 08:09:52;;;;;;;3.85;2.72;;;21.60;51.90;;;;;;5046272;28;20067;-54
2021/08/25 08:12:36;;;;;;;5.25;2.80;;;21.60;52.50;;;;;;5045227;28;20019;-53
2021/08/25 08:15:21;;;;;;;4.93;2.80;;;21.50;53.20;;;;;;5045799;28;20095;-51
2021/08/25 08:18:15;;;;;;;6.40;3.10;;;21.40;52.90;;;;;;5046511;28;20205;-51
2021/08/25 08:20:59;;;;;;;5.97;3.10;;;21.20;52.40;;;;;;5046136;28;20037;-54
2021/08/25 08:23:44;;;;;;;4.55;2.80;;;21.20;54.30;;;;;;5046031;28;20037;-50
2021/08/25 08:26:28;;;;;;;5.07;2.90;;;21.20;54.90;;;;;;5046440;28;20060;-53
2021/08/25 08:29:13;;;;;;;6.53;3.13;;;21.10;53.60;;;;;;5045987;28;20076;-53
2021/08/25 08:31:58;;;;;;;7.50;3.10;;;20.90;52.90;;;;;;5045204;28;20209;-53
2021/08/25 08:34:42;;;;;;;5.05;3.13;;;20.80;53.50;;;;;;5045658;28;20063;-54
2021/08/25 08:37:26;;;;;;;6.53;3.45;;;20.90;53.10;;;;;;5045926;28;20056;-52
2021/08/25 08:40:11;;;;;;;5.18;2.75;;;20.80;53.00;;;;;;5045509;28;20032;-51
2021/08/25 08:42:55;;;;;;;4.97;3.05;;;20.80;53.80;;;;;;5045768;28;20055;-53
2021/08/25 08:45:43;;;;;;;9.00;3.47;;;20.80;53.20;;;;;;5044903;28;20063;-53
2021/08/25 08:48:27;;;;;;;5.25;3.10;;;20.90;52.90;;;;;;5045629;28;20064;-52
2021/08/25 08:51:14;;;;;;;9.05;3.53;;;20.90;55.30;;;;;;5045897;28;20071;-52
2021/08/25 08:53:58;;;;;;;9.48;3.00;;;20.80;52.50;;;;;;5044343;28;20105;-52
2021/08/25 08:56:42;;;;;;;5.10;3.45;;;20.80;54.30;;;;;;5045387;28;20036;-53
2021/08/25 08:59:27;;;;;;;6.20;2.95;;;20.80;53.10;;;;;;5047389;28;20347;-53
2021/08/25 09:02:11;;;;;;;6.47;3.30;;;20.80;53.90;;;;;;5045630;28;20248;-53
2021/08/25 09:04:55;;;;;;;4.50;2.83;;;21.00;53.90;;;;;;5045136;28;20037;-53
2021/08/25 09:07:45;;;;;;;6.82;3.20;;;21.00;53.50;;;;;;5044489;28;20048;-53
2021/08/25 09:10:34;;;;;;;5.53;3.15;;;21.10;52.60;;;;;;5044634;28;20039;-49
2021/08/25 09:13:19;;;;;;;9.05;2.80;;;20.70;51.60;;;;;;5045152;28;20052;-52
2021/08/25 09:16:04;;;;;;;4.47;2.90;;;20.90;53.40;;;;;;5045150;28;20344;-53
2021/08/25 09:19:02;;;;;;;6.60;2.90;;;20.90;51.30;;;;;;5043912;28;20043;-53
2021/08/25 09:21:51;;;;;;;7.38;3.20;;;21.00;52.50;;;;;;5044940;28;20028;-50
2021/08/25 09:24:39;;;;;;;6.70;2.67;;;20.90;51.10;;;;;;5043736;28;20053;-53
2021/08/25 09:27:23;;;;;;;6.65;3.38;;;21.00;50.60;;;;;;5044433;28;20025;-51
2021/08/25 09:30:08;;;;;;;6.30;3.42;;;20.90;49.50;;;;;;5045223;28;20431;-50
2021/08/25 09:32:52;;;;;;;6.32;3.25;;;20.90;49.50;;;;;;5044884;28;20040;-52
2021/08/25 09:35:40;;;;;;;6.35;3.50;;;21.00;50.30;;;;;;5043783;28;20037;-52
2021/08/25 09:38:25;;;;;;;5.53;3.60;;;20.80;49.50;;;;;;5044886;28;20109;-51
2021/08/25 09:41:11;;;;;;;6.00;3.25;;;20.90;50.00;;;;;;5044570;28;20312;-52
2021/08/25 09:43:56;;;;;;;6.70;3.70;;;20.90;50.90;;;;;;5029387;28;20029;-53
2021/08/25 09:46:49;;;;;;;5.68;3.53;;;21.00;50.70;;;;;;5043326;28;20094;-53
2021/08/25 09:49:33;;;;;;;7.40;3.50;;;21.00;49.70;;;;;;5043354;28;20056;-50
2021/08/25 09:52:34;;;;;;;7.18;3.42;;;21.20;51.50;;;;;;5043419;28;20063;-52
2021/08/25 09:55:34;;;;;;;5.35;3.35;;;21.10;49.60;;;;;;5044428;28;20033;-53
2021/08/25 09:58:20;;;;;;;6.25;3.58;;;21.10;51.40;;;;;;5044371;28;20408;-50
2021/08/25 10:01:04;;;;;;;8.27;4.10;;;21.10;51.40;;;;;;5044281;28;20048;-53
2021/08/25 10:03:49;;;;;;;7.13;3.55;;;21.10;50.10;;;;;;5043532;28;20028;-52
2021/08/25 10:06:38;;;;;;;5.78;3.30;;;21.20;52.20;;;;;;5043948;28;20063;-54
2021/08/25 10:09:24;;;;;;;8.32;3.65;;;21.20;50.50;;;;;;5043895;28;20033;-53
2021/08/25 10:12:08;;;;;;;8.65;3.70;;;21.30;49.20;;;;;;5043429;28;20403;-53
2021/08/25 10:14:52;;;;;;;6.82;3.53;;;21.30;48.90;;;;;;5042814;28;20407;-53
2021/08/25 10:17:39;;;;;;;6.95;3.67;;;21.20;47.90;;;;;;5043924;28;20040;-53
2021/08/25 10:20:23;;;;;;;5.72;3.50;;;21.30;48.50;;;;;;5044159;28;20052;-53
2021/08/25 10:23:07;;;;;;;6.30;3.35;;;21.20;48.50;;;;;;5043650;28;20055;-54
2021/08/25 10:26:05;;;;;;;7.07;3.42;;;21.30;49.80;;;;;;5043838;28;20305;-53
2021/08/25 10:28:59;;;;;;;9.38;3.60;;;21.50;49.70;;;;;;5043693;28;20044;-53
2021/08/25 10:31:48;;;;;;;11.63;3.67;;;21.60;47.70;;;;;;5043699;28;20040;-53
2021/08/25 10:34:38;;;;;;;8.10;3.47;;;21.40;48.20;;;;;;5043825;28;20368;-53
2021/08/25 10:37:26;;;;;;;6.60;3.40;;;21.50;50.10;;;;;;5043595;28;20272;-53
2021/08/25 10:40:10;;;;;;;6.13;3.20;;;21.70;49.50;;;;;;5043522;28;20040;-52
2021/08/25 10:42:58;;;;;;;9.48;3.40;;;21.70;48.60;;;;;;5043618;28;20028;-53
2021/08/25 10:45:45;;;;;;;7.00;3.17;;;21.80;49.60;;;;;;5043501;28;20071;-53
2021/08/25 10:48:47;;;;;;;9.90;3.28;;;21.70;47.90;;;;;;5043280;28;20075;-53
2021/08/25 10:51:35;;;;;;;9.23;3.53;;;21.80;48.60;;;;;;5042389;28;20020;-54
2021/08/25 10:54:19;;;;;;;6.32;3.10;;;21.70;48.30;;;;;;5043308;28;20064;-53
2021/08/25 10:57:11;;;;;;;6.03;3.05;;;21.80;49.50;;;;;;5043967;28;20020;-53
2021/08/25 11:00:06;;;;;;;5.22;3.30;;;22.00;50.30;;;;;;5043379;28;20080;-54
2021/08/25 11:02:51;;;;;;;5.95;3.22;;;21.90;47.60;;;;;;5043576;28;20037;-53
2021/08/25 11:05:38;;;;;;;5.80;2.90;;;21.90;49.40;;;;;;5043852;28;20128;-54
2021/08/25 11:08:22;;;;;;;5.35;3.08;;;22.10;48.20;;;;;;5043884;28;20104;-53
2021/08/25 11:11:13;;;;;;;9.40;3.40;;;22.10;47.30;;;;;;5043605;28;20249;-52
2021/08/25 11:13:58;;;;;;;7.10;3.40;;;22.00;47.00;;;;;;5043343;28;20048;-52
2021/08/25 11:16:42;;;;;;;7.82;3.78;;;21.80;46.40;;;;;;5046523;28;20250;-53
2021/08/25 11:19:31;;;;;;;5.95;3.03;;;21.90;48.10;;;;;;5047164;28;20371;-52
2021/08/25 11:22:29;;;;;;;8.23;3.22;;;21.90;47.60;;;;;;5047232;28;20204;-54
2021/08/25 11:25:16;;;;;;;6.80;3.30;;;22.20;48.30;;;;;;5046995;28;20224;-54
2021/08/25 11:28:00;;;;;;;7.68;3.38;;;22.20;49.00;;;;;;5046964;28;20028;-53
2021/08/25 11:30:44;;;;;;;7.47;3.20;;;22.10;47.80;;;;;;5046995;28;20097;-53
2021/08/25 11:33:29;;;;;;;5.25;3.05;;;21.80;46.50;;;;;;5046759;28;20375;-53
2021/08/25 11:36:13;;;;;;;5.53;3.10;;;22.00;46.60;;;;;;5047562;28;20029;-50
2021/08/25 11:39:09;;;;;;;4.70;3.15;;;21.80;47.10;;;;;;5047020;28;20039;-53
2021/08/25 11:41:53;;;;;;;6.93;3.55;;;22.10;47.90;;;;;;5033374;28;20095;-54
2021/08/25 11:44:44;;;;;;;5.25;3.03;;;22.30;49.10;;;;;;5046703;28;20040;-52
2021/08/25 11:47:28;;;;;;;6.23;3.57;;;22.60;50.00;;;;;;5046094;28;20032;-53
2021/08/25 11:50:12;;;;;;;5.93;2.90;;;22.60;47.60;;;;;;5046917;28;20060;-54
2021/08/25 11:52:56;;;;;;;5.68;3.13;;;22.70;47.40;;;;;;5046514;28;20101;-54
2021/08/25 11:55:40;;;;;;;7.13;3.40;;;22.90;48.90;;;;;;5045566;28;20064;-54
2021/08/25 11:58:39;;;;;;;6.90;3.30;;;22.80;45.80;;;;;;5046243;28;20088;-53
2021/08/25 12:01:26;;;;;;;5.97;3.20;;;22.80;47.60;;;;;;5045695;28;20037;-53
2021/08/25 12:04:10;;;;;;;6.55;3.28;;;23.00;48.70;;;;;;5046650;28;20071;-53
2021/08/25 12:06:55;;;;;;;6.05;3.30;;;23.10;48.40;;;;;;5046288;28;20028;-54
2021/08/25 12:09:39;;;;;;;8.05;3.30;;;23.20;47.60;;;;;;5046058;28;20213;-50
2021/08/25 12:12:23;;;;;;;6.10;3.22;;;23.00;45.90;;;;;;5046169;28;20097;-54
2021/08/25 12:15:08;;;;;;;6.13;3.50;;;22.80;47.70;;;;;;5046295;28;20057;-50
2021/08/25 12:17:58;;;;;;;5.90;3.35;;;22.80;47.80;;;;;;5045913;28;20101;-54
2021/08/25 12:20:44;;;;;;;6.33;3.53;;;23.10;48.00;;;;;;5046095;28;20037;-53
2021/08/25 12:23:28;;;;;;;6.75;3.90;;;23.10;45.50;;;;;;5046336;28;20032;-53
2021/08/25 12:26:16;;;;;;;5.38;3.17;;;23.00;45.00;;;;;;5046201;28;20282;-53
2021/08/25 12:29:01;;;;;;;8.65;3.88;;;23.10;44.70;;;;;;5045463;28;20080;-53
2021/08/25 12:31:54;;;;;;;6.15;3.45;;;22.80;43.80;;;;;;5045728;28;20324;-52
2021/08/25 12:34:58;;;;;;;9.00;3.30;;;23.00;47.00;;;;;;5044963;28;20033;-52
2021/08/25 12:37:53;;;;;;;7.90;3.90;;;23.20;47.50;;;;;;5045768;28;20096;-53
2021/08/25 12:40:37;;;;;;;7.10;3.47;;;23.30;47.20;;;;;;5045533;28;20040;-52
2021/08/25 12:43:21;;;;;;;8.07;3.72;;;23.00;45.40;;;;;;5045569;28;20095;-54
2021/08/25 12:46:05;;;;;;;7.53;3.58;;;22.90;44.30;;;;;;5045631;28;20236;-51
2021/08/25 12:48:50;;;;;;;6.25;3.22;;;22.70;44.70;;;;;;5045416;28;20027;-53
2021/08/25 12:51:34;;;;;;;7.78;3.65;;;22.70;45.70;;;;;;5045426;28;20040;-52
2021/08/25 12:54:19;;;;;;;7.13;3.50;;;22.70;44.60;;;;;;5045350;28;20020;-53
2021/08/25 12:57:03;;;;;;;7.80;3.38;;;22.70;44.90;;;;;;5044749;28;20348;-53
2021/08/25 12:59:48;;;;;;;8.40;3.58;;;22.60;43.90;;;;;;5045359;28;20160;-53
2021/08/25 13:02:32;;;;;;;7.35;3.83;;;22.70;44.20;;;;;;5045774;28;20065;-53
2021/08/25 13:05:16;;;;;;;7.65;4.05;;;22.60;45.70;;;;;;5044591;28;20029;-53
2021/08/25 13:08:00;;;;;;;6.90;3.28;;;22.50;44.70;;;;;;5045156;28;20067;-51
2021/08/25 13:10:45;;;;;;;6.85;3.20;;;22.30;44.10;;;;;;5045252;28;20092;-50
2021/08/25 13:13:29;;;;;;;5.75;3.22;;;22.40;44.20;;;;;;5045052;28;20072;-51
2021/08/25 13:16:14;;;;;;;6.53;3.25;;;22.60;44.60;;;;;;5045087;28;20156;-53
2021/08/25 13:18:58;;;;;;;7.78;3.45;;;22.70;45.20;;;;;;5044786;28;20132;-53
2021/08/25 13:21:42;;;;;;;10.65;3.92;;;22.80;44.80;;;;;;5045069;28;20076;-49
2021/08/25 13:24:26;;;;;;;6.53;3.75;;;22.80;46.10;;;;;;5044695;28;20024;-52
2021/08/25 13:27:11;;;;;;;8.05;4.10;;;22.80;45.60;;;;;;5045154;28;20101;-53
2021/08/25 13:29:55;;;;;;;9.07;3.80;;;22.80;46.10;;;;;;5044844;28;20040;-53
2021/08/25 13:32:39;;;;;;;6.88;3.78;;;23.10;47.30;;;;;;5044728;28;20095;-51
2021/08/25 13:35:23;;;;;;;7.32;3.33;;;23.00;45.30;;;;;;5045020;28;20041;-53
2021/08/25 13:38:07;;;;;;;8.75;3.63;;;22.80;44.40;;;;;;5044824;28;20075;-51
2021/08/25 13:40:52;;;;;;;7.03;4.03;;;23.00;45.80;;;;;;5044589;28;20094;-52
2021/08/25 13:43:36;;;;;;;6.78;3.30;;;22.90;44.60;;;;;;5044035;28;20224;-50
2021/08/25 13:46:21;;;;;;;6.13;3.50;;;22.80;43.90;;;;;;5044359;28;20112;-53
2021/08/25 13:49:06;;;;;;;7.25;3.70;;;23.00;46.70;;;;;;5044713;28;20028;-52
2021/08/25 13:51:50;;;;;;;7.18;3.30;;;23.00;47.60;;;;;;5044279;28;20383;-50
2021/08/25 13:54:34;;;;;;;5.53;3.05;;;22.70;44.30;;;;;;5044341;28;20152;-52
2021/08/25 13:57:19;;;;;;;7.00;3.53;;;22.70;45.80;;;;;;5044133;28;20214;-51
2021/08/25 14:00:04;;;;;;;9.60;3.97;;;22.50;44.00;;;;;;5044851;28;20102;-52
2021/08/25 14:02:49;;;;;;;6.50;3.47;;;22.40;44.50;;;;;;5044285;28;20103;-53
2021/08/25 14:05:33;;;;;;;8.02;3.50;;;22.70;47.40;;;;;;5044563;28;20087;-51
2021/08/25 14:08:17;;;;;;;8.90;3.42;;;22.80;47.50;;;;;;5044789;28;20067;-52
2021/08/25 14:11:02;;;;;;;11.57;4.40;;;22.90;47.40;;;;;;5044208;28;20209;-53
2021/08/25 14:13:46;;;;;;;6.85;3.63;;;22.70;44.90;;;;;;5042710;28;20063;-52
2021/08/25 14:16:30;;;;;;;6.03;3.45;;;22.60;44.70;;;;;;5043969;28;20379;-53
2021/08/25 14:19:14;;;;;;;7.03;3.50;;;22.50;43.90;;;;;;5043908;28;20032;-51